createdAt,value
2017-10-09T00:00:25.232Z,99594.09
2017-10-09T00:02:52.725Z,99606.39
2017-10-09T00:05:20.210Z,99615.39
2017-10-09T00:07:47.656Z,99605.23
2017-10-09T00:10:15.178Z,99612.53
2017-10-09T00:12:42.640Z,99612.09
2017-10-09T00:15:10.152Z,99615.61
2017-10-09T00:17:37.634Z,99623.62
2017-10-09T00:20:05.130Z,99619.83
2017-10-09T00:22:32.592Z,99621.40
2017-10-09T00:25:00.076Z,99630.02
2017-10-09T00:27:27.585Z,99614.66
2017-10-09T00:29:55.063Z,99616.88
2017-10-09T00:32:22.543Z,99620.64
2017-10-09T00:34:50.007Z,99626.17
2017-10-09T00:37:17.562Z,99631.05
2017-10-09T00:39:45.041Z,99632.28
2017-10-09T00:42:12.497Z,99623.50
2017-10-09T00:44:39.995Z,99637.99
2017-10-09T00:47:07.491Z,99625.75
2017-10-09T00:49:34.965Z,99626.05
2017-10-09T00:52:02.453Z,99628.73
2017-10-09T00:54:29.979Z,99627.77
2017-10-09T00:56:57.422Z,99631.72
2017-10-09T00:59:24.890Z,99635.48
2017-10-09T01:01:52.384Z,99635.00
2017-10-09T01:04:19.841Z,99629.59
2017-10-09T01:06:47.394Z,99632.49
2017-10-09T01:09:20.389Z,99630.78
2017-10-09T01:11:47.858Z,99633.55
2017-10-09T01:14:15.318Z,99627.54
2017-10-09T01:16:42.844Z,99631.73
2017-10-09T01:19:10.330Z,99630.09
2017-10-09T01:21:37.811Z,99630.99
2017-10-09T01:24:05.312Z,99635.86
2017-10-09T01:26:32.790Z,99636.66
2017-10-09T01:29:00.259Z,99638.76
2017-10-09T01:31:27.749Z,99641.08
2017-10-09T01:33:55.329Z,99642.40
2017-10-09T01:36:22.824Z,99645.77
2017-10-09T01:38:50.322Z,99642.55
2017-10-09T01:41:17.802Z,99637.97
2017-10-09T01:43:45.260Z,99636.34
2017-10-09T01:46:12.799Z,99643.41
2017-10-09T01:48:40.282Z,99644.65
2017-10-09T01:51:07.755Z,99646.03
2017-10-09T01:53:35.287Z,99645.92
2017-10-09T01:56:02.823Z,99648.05
2017-10-09T01:58:30.298Z,99650.19
2017-10-09T02:00:57.780Z,99650.65
2017-10-09T02:03:25.250Z,99658.68
2017-10-09T02:05:52.721Z,99658.17
2017-10-09T02:08:20.232Z,99653.98
2017-10-09T02:10:47.702Z,99654.77
2017-10-09T02:13:15.170Z,99661.94
2017-10-09T02:15:42.654Z,99661.12
2017-10-09T02:18:10.131Z,99658.52
2017-10-09T02:20:37.624Z,99657.44
2017-10-09T02:23:05.175Z,99660.38
2017-10-09T02:25:32.680Z,99656.82
2017-10-09T02:28:00.165Z,99658.28
2017-10-09T02:30:27.667Z,99657.11
2017-10-09T02:32:55.153Z,99664.32
2017-10-09T02:35:22.605Z,99663.54
2017-10-09T02:37:50.097Z,99657.61
2017-10-09T02:40:17.573Z,99660.55
2017-10-09T02:42:45.781Z,99667.97
2017-10-09T02:45:13.260Z,99668.76
2017-10-09T02:47:40.728Z,99672.69
2017-10-09T02:50:08.194Z,99678.75
2017-10-09T02:52:35.765Z,99672.39
2017-10-09T02:55:03.251Z,99676.16
2017-10-09T02:57:30.718Z,99669.19
2017-10-09T02:59:58.235Z,99674.27
2017-10-09T03:02:25.690Z,99676.94
2017-10-09T03:04:53.149Z,99675.63
2017-10-09T03:07:20.648Z,99671.38
2017-10-09T03:09:48.137Z,99672.73
2017-10-09T03:12:15.593Z,99668.44
2017-10-09T03:14:43.077Z,99668.15
2017-10-09T03:17:10.552Z,99663.05
2017-10-09T03:19:38.040Z,99663.81
2017-10-09T03:22:05.571Z,99662.14
2017-10-09T03:24:35.821Z,99669.88
2017-10-09T03:27:18.217Z,99675.08
2017-10-09T03:29:49.034Z,99673.87
2017-10-09T03:32:16.487Z,99669.52
2017-10-09T03:34:43.981Z,99672.06
2017-10-09T03:37:11.470Z,99677.14
2017-10-09T03:39:38.941Z,99669.80
2017-10-09T03:42:06.448Z,99674.98
2017-10-09T03:44:33.923Z,99672.81
2017-10-09T03:47:01.399Z,99673.34
2017-10-09T03:49:28.879Z,99673.69
2017-10-09T03:51:56.361Z,99678.41
2017-10-09T03:54:23.845Z,99684.42
2017-10-09T03:56:51.321Z,99676.80
2017-10-09T03:59:18.824Z,99681.58
2017-10-09T04:01:46.283Z,99691.84
2017-10-09T04:04:13.767Z,99688.02
2017-10-09T04:06:41.232Z,99696.55
2017-10-09T04:09:08.704Z,99698.67
2017-10-09T04:11:36.214Z,99696.48
2017-10-09T04:14:03.667Z,99694.70
2017-10-09T04:16:31.118Z,99694.84
2017-10-09T04:18:58.609Z,99702.20
2017-10-09T04:21:26.085Z,99697.97
2017-10-09T04:23:53.545Z,99691.50
2017-10-09T04:26:21.033Z,99700.92
2017-10-09T04:28:48.510Z,99696.68
2017-10-09T04:31:15.980Z,99697.94
2017-10-09T04:33:43.493Z,99697.47
2017-10-09T04:36:11.412Z,99704.83
2017-10-09T04:38:38.929Z,99692.45
2017-10-09T04:41:06.393Z,99706.48
2017-10-09T04:43:33.850Z,99710.39
2017-10-09T04:46:01.322Z,99709.91
2017-10-09T04:48:28.801Z,99707.78
2017-10-09T04:50:56.314Z,99707.34
2017-10-09T04:53:23.775Z,99711.09
2017-10-09T04:55:51.284Z,99712.86
2017-10-09T04:58:18.738Z,99714.94
2017-10-09T05:00:46.214Z,99712.33
2017-10-09T05:03:13.801Z,99719.09
2017-10-09T05:05:41.271Z,99711.05
2017-10-09T05:08:08.737Z,99721.20
2017-10-09T05:10:36.201Z,99719.92
2017-10-09T05:13:03.686Z,99719.09
2017-10-09T05:15:31.199Z,99726.30
2017-10-09T05:17:58.660Z,99727.23
2017-10-09T05:20:26.154Z,99725.63
2017-10-09T05:22:53.641Z,99729.09
2017-10-09T05:25:21.126Z,99732.00
2017-10-09T05:27:48.594Z,99740.84
2017-10-09T05:30:16.045Z,99740.84
2017-10-09T05:32:43.572Z,99741.28
2017-10-09T05:35:11.067Z,99746.38
2017-10-09T05:37:38.541Z,99747.20
2017-10-09T05:40:06.046Z,99754.36
2017-10-09T05:42:33.527Z,99750.58
2017-10-09T05:45:00.982Z,99754.39
2017-10-09T05:47:28.463Z,99753.52
2017-10-09T05:49:55.906Z,99754.75
2017-10-09T05:52:23.389Z,99754.34
2017-10-09T05:54:50.884Z,99751.78
2017-10-09T05:57:18.357Z,99759.02
2017-10-09T05:59:45.801Z,99753.38
2017-10-09T06:02:13.477Z,99759.79
2017-10-09T06:04:40.946Z,99763.52
2017-10-09T06:07:09.370Z,99764.78
2017-10-09T06:09:36.923Z,99767.30
2017-10-09T06:12:04.382Z,99768.97
2017-10-09T06:14:32.914Z,99771.91
2017-10-09T06:17:00.406Z,99772.71
2017-10-09T06:19:27.877Z,99782.38
2017-10-09T06:21:55.942Z,99777.28
2017-10-09T06:24:23.427Z,99777.67
2017-10-09T06:26:50.881Z,99781.03
2017-10-09T06:29:18.345Z,99775.42
2017-10-09T06:31:45.832Z,99776.67
2017-10-09T06:34:13.298Z,99776.53
2017-10-09T06:36:40.782Z,99783.27
2017-10-09T06:39:08.267Z,99785.39
2017-10-09T06:41:35.721Z,99786.55
2017-10-09T06:44:03.221Z,99787.28
2017-10-09T06:46:30.718Z,99789.61
2017-10-09T06:48:58.189Z,99783.67
2017-10-09T06:51:25.664Z,99786.63
2017-10-09T06:53:53.136Z,99790.04
2017-10-09T06:56:20.600Z,99788.58
2017-10-09T06:58:48.108Z,99787.58
2017-10-09T07:01:15.576Z,99792.63
2017-10-09T07:03:43.053Z,99793.17
2017-10-09T07:06:10.510Z,99792.70
2017-10-09T07:08:37.989Z,99792.83
2017-10-09T07:11:05.457Z,99803.46
2017-10-09T07:13:32.928Z,99791.30
2017-10-09T07:16:00.423Z,99810.43
2017-10-09T07:18:27.950Z,99802.36
2017-10-09T07:20:55.407Z,99804.53
2017-10-09T07:23:22.887Z,99806.12
2017-10-09T07:25:50.365Z,99801.77
2017-10-09T07:28:17.829Z,99805.43
2017-10-09T07:30:45.338Z,99811.37
2017-10-09T07:33:12.796Z,99814.99
2017-10-09T07:35:40.260Z,99811.02
2017-10-09T07:38:07.749Z,99807.21
2017-10-09T07:40:35.217Z,99809.63
2017-10-09T07:43:02.676Z,99812.41
2017-10-09T07:45:30.156Z,99812.55
2017-10-09T07:47:57.691Z,99812.55
2017-10-09T07:50:25.200Z,99814.91
2017-10-09T07:52:52.668Z,99817.80
2017-10-09T07:55:20.110Z,99813.30
2017-10-09T07:57:47.571Z,99814.91
2017-10-09T08:00:15.046Z,99818.70
2017-10-09T08:02:42.507Z,99808.31
2017-10-09T08:05:10.026Z,99814.14
2017-10-09T08:07:37.537Z,99812.97
2017-10-09T08:10:04.993Z,99813.16
2017-10-09T08:12:32.457Z,99812.25
2017-10-09T08:14:59.958Z,99804.64
2017-10-09T08:17:27.849Z,99807.56
2017-10-09T08:19:55.370Z,99812.69
2017-10-09T08:22:22.837Z,99809.03
2017-10-09T08:24:50.354Z,99803.03
2017-10-09T08:27:17.799Z,99800.21
2017-10-09T08:29:45.282Z,99824.46
2017-10-09T08:32:12.744Z,99812.47
2017-10-09T08:34:40.210Z,99807.94
2017-10-09T08:37:07.738Z,99811.67
2017-10-09T08:39:35.218Z,99803.33
2017-10-09T08:42:02.716Z,99808.55
2017-10-09T08:44:30.206Z,99812.11
2017-10-09T08:46:57.689Z,99815.20
2017-10-09T08:49:25.146Z,99804.02
2017-10-09T08:51:52.645Z,99794.86
2017-10-09T08:54:20.110Z,99798.47
2017-10-09T08:56:47.607Z,99793.59
2017-10-09T08:59:15.117Z,99798.41
2017-10-09T09:01:42.569Z,99806.04
2017-10-09T09:04:10.036Z,99800.02
2017-10-09T09:06:37.527Z,99792.06
2017-10-09T09:09:05.010Z,99790.98
2017-10-09T09:11:32.481Z,99793.55
2017-10-09T09:13:59.947Z,99788.52
2017-10-09T09:16:27.416Z,99802.63
2017-10-09T09:18:54.914Z,99792.31
2017-10-09T09:21:22.421Z,99798.78
2017-10-09T09:23:49.993Z,99795.70
2017-10-09T09:26:17.445Z,99787.89
2017-10-09T09:28:44.925Z,99798.34
2017-10-09T09:31:12.405Z,99791.95
2017-10-09T09:33:39.853Z,99793.38
2017-10-09T09:36:07.320Z,99783.66
2017-10-09T09:38:34.910Z,99790.04
2017-10-09T09:41:02.380Z,99802.75
2017-10-09T09:43:29.939Z,99783.12
2017-10-09T09:45:57.388Z,99796.24
2017-10-09T09:48:24.893Z,99785.11
2017-10-09T09:50:52.444Z,99786.48
2017-10-09T10:06:15.089Z,99785.45
2017-10-09T10:08:42.552Z,99785.17
2017-10-09T10:11:10.007Z,99779.02
2017-10-09T10:13:37.473Z,99785.11
2017-10-09T10:16:04.936Z,99792.98
2017-10-09T10:18:32.402Z,99785.08
2017-10-09T10:20:59.869Z,99782.98
2017-10-09T10:23:27.337Z,99781.88
2017-10-09T10:25:54.802Z,99791.16
2017-10-09T10:28:22.278Z,99782.26
2017-10-09T10:30:49.732Z,99782.20
2017-10-09T10:33:17.201Z,99790.72
2017-10-09T10:35:44.689Z,99778.81
2017-10-09T10:38:12.145Z,99771.20
2017-10-09T10:40:39.670Z,99785.46
2017-10-09T10:43:07.142Z,99779.20
2017-10-09T10:45:34.624Z,99768.52
2017-10-09T10:48:02.081Z,99769.67
2017-10-09T10:50:29.556Z,99771.54
2017-10-09T10:52:57.056Z,99766.05
2017-10-09T10:55:24.532Z,99767.62
2017-10-09T10:57:52.002Z,99767.02
2017-10-09T11:00:19.470Z,99767.61
2017-10-09T11:02:46.932Z,99766.13
2017-10-09T11:05:14.418Z,99792.09
2017-10-09T11:07:41.896Z,99783.48
2017-10-09T11:10:09.387Z,99771.72
2017-10-09T11:12:36.848Z,99801.03
2017-10-09T11:15:04.306Z,99768.30
2017-10-09T11:17:32.740Z,99768.62
2017-10-09T11:20:00.230Z,99760.20
2017-10-09T11:22:27.739Z,99762.16
2017-10-09T11:24:55.185Z,99745.45
2017-10-09T11:27:22.678Z,99745.67
2017-10-09T11:29:50.121Z,99740.70
2017-10-09T11:32:17.584Z,99738.28
2017-10-09T11:34:45.046Z,99742.06
2017-10-09T11:37:12.538Z,99745.34
2017-10-09T11:39:40.002Z,99730.86
2017-10-09T11:42:07.502Z,99739.75
2017-10-09T11:44:34.986Z,99738.84
2017-10-09T11:47:02.468Z,99729.42
2017-10-09T11:49:29.959Z,99727.37
2017-10-09T11:51:57.436Z,99729.20
2017-10-09T11:54:24.921Z,99729.94
2017-10-09T11:56:52.409Z,99730.62
2017-10-09T11:59:19.882Z,99736.59
2017-10-09T12:01:47.337Z,99729.38
2017-10-09T12:04:14.815Z,99726.51
2017-10-09T12:06:42.278Z,99724.77
2017-10-09T12:09:09.776Z,99742.45
2017-10-09T12:11:37.312Z,99736.59
2017-10-09T12:14:04.764Z,99732.66
2017-10-09T12:16:32.216Z,99730.02
2017-10-09T12:18:59.672Z,99732.84
2017-10-09T12:21:27.150Z,99731.21
2017-10-09T12:23:54.620Z,99721.63
2017-10-09T12:26:22.128Z,99727.88
2017-10-09T12:28:49.593Z,99720.45
2017-10-09T12:31:17.041Z,99716.99
2017-10-09T12:33:44.505Z,99716.91
2017-10-09T12:36:12.058Z,99711.64
2017-10-09T12:38:39.505Z,99709.28
2017-10-09T12:41:07.022Z,99709.20
2017-10-09T12:43:34.497Z,99717.43
2017-10-09T12:46:01.981Z,99700.90
2017-10-09T12:48:29.472Z,99702.09
2017-10-09T12:50:56.966Z,99709.18
2017-10-09T12:53:24.442Z,99710.80
2017-10-09T12:55:51.930Z,99713.05
2017-10-09T12:58:19.392Z,99707.75
2017-10-09T13:00:46.857Z,99707.77
2017-10-09T13:03:14.379Z,99708.16
2017-10-09T13:05:41.836Z,99703.49
2017-10-09T13:08:09.287Z,99707.51
2017-10-09T13:10:36.761Z,99711.27
2017-10-09T13:13:04.212Z,99706.23
2017-10-09T13:15:31.678Z,99710.44
2017-10-09T13:17:59.147Z,99699.58
2017-10-09T13:20:26.630Z,99704.05
2017-10-09T13:22:54.094Z,99711.08
2017-10-09T13:25:21.638Z,99706.67
2017-10-09T13:27:49.108Z,99701.38
2017-10-09T13:30:16.571Z,99709.91
2017-10-09T13:32:44.068Z,99704.38
2017-10-09T13:35:11.524Z,99700.78
2017-10-09T13:37:39.645Z,99700.80
2017-10-09T13:40:07.154Z,99697.09
2017-10-09T13:42:34.601Z,99681.19
2017-10-09T13:45:02.116Z,99677.30
2017-10-09T13:47:29.598Z,99691.12
2017-10-09T13:49:57.098Z,99684.38
2017-10-09T13:52:24.569Z,99689.02
2017-10-09T13:54:52.052Z,99692.03
2017-10-09T13:57:19.536Z,99692.98
2017-10-09T13:59:47.000Z,99698.07
2017-10-09T14:02:14.465Z,99685.20
2017-10-09T14:04:41.936Z,99689.71
2017-10-09T14:07:09.415Z,99691.59
2017-10-09T14:09:36.900Z,99692.88
2017-10-09T14:12:04.365Z,99690.66
2017-10-09T14:14:31.855Z,99692.77
2017-10-09T14:16:59.323Z,99687.71
2017-10-09T14:19:26.781Z,99688.41
2017-10-09T14:21:54.262Z,99693.91
2017-10-09T14:24:21.788Z,99688.70
2017-10-09T14:26:49.262Z,99683.18
2017-10-09T14:29:16.713Z,99687.23
2017-10-09T14:41:34.133Z,99686.53
2017-10-09T14:44:01.669Z,99677.25
2017-10-09T14:46:29.206Z,99680.82
2017-10-09T14:48:56.703Z,99680.86
2017-10-09T14:51:24.242Z,99682.21
2017-10-09T14:53:51.703Z,99679.28
2017-10-09T14:56:19.187Z,99684.08
2017-10-09T14:58:46.648Z,99664.91
2017-10-09T15:01:14.140Z,99670.56
2017-10-09T15:03:41.583Z,99673.57
2017-10-09T15:06:09.734Z,99675.79
2017-10-09T15:08:37.278Z,99681.44
2017-10-09T15:11:04.742Z,99686.05
2017-10-09T15:13:32.208Z,99687.09
2017-10-09T15:15:59.689Z,99680.79
2017-10-09T15:18:27.186Z,99684.55
2017-10-09T15:20:54.635Z,99683.89
2017-10-09T15:23:22.100Z,99678.41
2017-10-09T15:25:49.582Z,99679.31
2017-10-09T15:28:17.042Z,99677.17
2017-10-09T15:30:44.528Z,99681.23
2017-10-09T15:33:12.013Z,99686.13
2017-10-09T15:35:39.490Z,99689.62
2017-10-09T15:38:06.979Z,99694.30
2017-10-09T15:40:34.468Z,99694.97
2017-10-09T15:43:01.924Z,99689.56
2017-10-09T15:45:29.489Z,99687.86
2017-10-09T15:47:56.940Z,99696.73
2017-10-09T15:50:24.421Z,99693.53
2017-10-09T15:52:51.892Z,99697.53
2017-10-09T15:55:19.377Z,99700.89
2017-10-09T15:57:46.849Z,99698.34
2017-10-09T16:00:14.389Z,99697.18
2017-10-09T16:02:41.886Z,99696.53
2017-10-09T16:05:09.385Z,99701.68
2017-10-09T16:07:36.864Z,99710.38
2017-10-09T16:10:04.345Z,99709.97
2017-10-09T16:12:32.143Z,99715.24
2017-10-09T16:14:59.625Z,99709.12
2017-10-09T16:17:27.103Z,99718.34
2017-10-09T16:19:54.563Z,99709.34
2017-10-09T16:22:22.068Z,99717.75
2017-10-09T16:24:49.513Z,99708.90
2017-10-09T16:27:16.981Z,99713.31
2017-10-09T16:29:44.528Z,99706.15
2017-10-09T16:32:12.023Z,99714.73
2017-10-09T16:34:39.495Z,99712.09
2017-10-09T16:37:07.017Z,99715.90
2017-10-09T16:39:34.521Z,99722.44
2017-10-09T16:42:01.992Z,99716.98
2017-10-09T16:44:29.483Z,99711.87
2017-10-09T16:46:56.946Z,99718.83
2017-10-09T16:49:24.427Z,99713.52
2017-10-09T16:51:52.003Z,99717.13
2017-10-09T16:54:19.514Z,99725.06
2017-10-09T16:56:47.405Z,99732.48
2017-10-09T16:59:14.885Z,99737.18
2017-10-09T17:01:42.351Z,99736.13
2017-10-09T17:04:09.821Z,99739.14
2017-10-09T17:06:37.299Z,99733.37
2017-10-09T17:09:04.809Z,99736.38
2017-10-09T17:11:32.274Z,99728.30
2017-10-09T17:13:59.811Z,99728.25
2017-10-09T17:16:27.284Z,99726.59
2017-10-09T17:18:54.742Z,99729.53
2017-10-09T17:21:22.220Z,99727.03
2017-10-09T17:23:49.702Z,99729.59
2017-10-09T17:26:17.163Z,99732.34
2017-10-09T17:28:44.643Z,99729.83
2017-10-09T17:31:12.131Z,99731.55
2017-10-09T17:33:39.612Z,99732.72
2017-10-09T17:36:07.195Z,99733.69
2017-10-09T17:38:34.758Z,99731.73
2017-10-09T17:41:02.285Z,99727.45
2017-10-09T17:43:29.788Z,99729.59
2017-10-09T17:45:57.286Z,99733.50
2017-10-09T17:48:25.205Z,99727.28
2017-10-09T17:50:52.690Z,99729.65
2017-10-09T17:53:20.204Z,99728.56
2017-10-09T17:55:47.666Z,99734.66
2017-10-09T17:58:15.202Z,99741.37
2017-10-09T18:00:42.745Z,99747.94
2017-10-09T18:03:10.249Z,99743.58
2017-10-09T18:05:37.750Z,99742.56
2017-10-09T18:08:05.232Z,99736.67
2017-10-09T18:10:32.757Z,99736.50
2017-10-09T18:13:00.308Z,99736.75
2017-10-09T18:15:27.819Z,99745.84
2017-10-09T18:17:55.293Z,99747.57
2017-10-09T18:20:22.815Z,99746.78
2017-10-09T18:22:50.339Z,99748.01
2017-10-09T18:25:18.218Z,99747.55
2017-10-09T18:27:45.748Z,99743.59
2017-10-09T18:30:13.236Z,99742.67
2017-10-09T18:32:40.705Z,99744.89
2017-10-09T18:35:08.191Z,99749.27
2017-10-09T18:37:35.683Z,99754.65
2017-10-09T18:40:03.192Z,99757.05
2017-10-09T18:42:30.677Z,99759.68
2017-10-09T18:44:58.149Z,99756.56
2017-10-09T18:47:25.667Z,99763.39
2017-10-09T18:49:53.518Z,99756.33
2017-10-09T18:52:21.045Z,99756.55
2017-10-09T18:54:48.512Z,99745.00
2017-10-09T18:57:16.024Z,99744.44
2017-10-09T18:59:43.784Z,99756.44
2017-10-09T19:02:11.402Z,99758.56
2017-10-09T19:04:38.957Z,99760.65
2017-10-09T19:07:06.758Z,99764.25
2017-10-09T19:09:34.276Z,99763.70
2017-10-09T19:12:01.898Z,99767.17
2017-10-09T19:14:29.380Z,99763.14
2017-10-09T19:16:57.377Z,99761.82
2017-10-09T19:19:25.096Z,99760.59
2017-10-09T19:21:52.627Z,99760.46
2017-10-09T19:24:20.092Z,99760.82
2017-10-09T19:26:47.671Z,99754.83
2017-10-09T19:29:15.120Z,99760.65
2017-10-09T19:31:42.642Z,99761.56
2017-10-09T19:34:10.551Z,99761.02
2017-10-09T19:36:38.338Z,99761.12
2017-10-09T19:39:05.956Z,99766.09
2017-10-09T19:41:33.657Z,99769.76
2017-10-09T19:44:01.268Z,99768.77
2017-10-09T19:46:28.902Z,99769.69
2017-10-09T19:48:56.505Z,99764.13
2017-10-09T19:51:24.054Z,99762.80
2017-10-09T19:53:52.536Z,99766.64
2017-10-09T19:56:20.096Z,99771.85
2017-10-09T19:58:47.574Z,99764.32
2017-10-09T20:01:15.077Z,99768.28
2017-10-09T20:03:42.588Z,99776.30
2017-10-09T20:06:10.085Z,99767.48
2017-10-09T20:08:37.584Z,99766.83
2017-10-09T20:11:05.299Z,99765.73
2017-10-09T20:13:32.816Z,99769.21
2017-10-09T20:16:00.287Z,99771.90
2017-10-09T20:18:30.847Z,99771.66
2017-10-09T20:20:58.338Z,99762.84
2017-10-09T20:23:25.796Z,99760.77
2017-10-09T20:25:53.661Z,99770.05
2017-10-09T20:28:21.145Z,99760.16
2017-10-09T20:30:48.870Z,99755.63
2017-10-09T20:33:16.355Z,99751.22
2017-10-09T20:35:43.905Z,99746.27
2017-10-09T20:38:11.423Z,99754.66
2017-10-09T20:40:38.950Z,99761.31
2017-10-09T20:43:06.452Z,99765.96
2017-10-09T20:45:33.918Z,99768.30
2017-10-09T20:48:01.828Z,99765.23
2017-10-09T20:50:29.299Z,99764.94
2017-10-09T20:52:56.794Z,99769.33
2017-10-09T20:55:24.295Z,99762.10
2017-10-09T20:57:51.781Z,99766.39
2017-10-09T21:00:19.458Z,99763.02
2017-10-09T21:02:47.213Z,99763.02
2017-10-09T21:05:14.713Z,99756.55
2017-10-09T21:07:42.253Z,99749.57
2017-10-09T21:10:09.754Z,99754.00
2017-10-09T21:12:37.263Z,99746.69
2017-10-09T21:15:04.780Z,99750.03
2017-10-09T21:17:32.324Z,99753.09
2017-10-09T21:19:59.815Z,99754.56
2017-10-09T21:22:27.328Z,99751.13
2017-10-09T21:24:54.818Z,99754.16
2017-10-09T21:27:22.309Z,99745.81
2017-10-09T21:29:49.815Z,99752.89
2017-10-09T21:32:17.280Z,99750.64
2017-10-09T21:34:44.780Z,99757.86
2017-10-09T21:37:12.274Z,99753.22
2017-10-09T21:39:39.781Z,99761.34
2017-10-09T21:42:07.262Z,99762.89
2017-10-09T21:44:34.726Z,99757.06
2017-10-09T21:47:02.270Z,99758.46
2017-10-09T21:49:30.445Z,99757.59
2017-10-09T21:51:57.984Z,99758.71
2017-10-09T21:54:25.523Z,99753.73
2017-10-09T21:56:52.994Z,99753.05
2017-10-09T21:59:20.494Z,99758.20
2017-10-09T22:01:48.098Z,99753.12
2017-10-09T22:04:15.585Z,99753.97
2017-10-09T22:06:43.068Z,99756.96
2017-10-09T22:09:10.580Z,99765.09
2017-10-09T22:11:38.081Z,99758.07
2017-10-09T22:14:05.613Z,99760.75
2017-10-09T22:16:33.080Z,99766.74
2017-10-09T22:19:00.549Z,99770.75
2017-10-09T22:21:28.013Z,99768.39
2017-10-09T22:23:55.490Z,99763.42
2017-10-09T22:26:23.013Z,99762.95
2017-10-09T22:28:50.472Z,99758.77
2017-10-09T22:31:18.516Z,99763.76
2017-10-09T22:33:45.974Z,99759.03
2017-10-09T22:36:13.458Z,99757.77
2017-10-09T22:38:40.925Z,99760.31
2017-10-09T22:41:08.395Z,99754.34
2017-10-09T22:43:35.884Z,99757.02
2017-10-09T22:46:03.355Z,99753.48
2017-10-09T22:48:30.818Z,99752.73
2017-10-09T22:50:58.502Z,99758.35
2017-10-09T22:53:26.041Z,99757.02
2017-10-09T22:55:53.531Z,99764.28
2017-10-09T22:58:21.026Z,99757.92
2017-10-09T23:00:48.511Z,99755.25
2017-10-09T23:03:15.963Z,99753.28
2017-10-09T23:05:43.412Z,99745.62
2017-10-09T23:08:10.868Z,99751.23
2017-10-09T23:10:38.337Z,99747.23
2017-10-09T23:13:05.807Z,99746.86
2017-10-09T23:15:33.280Z,99753.28
2017-10-09T23:18:00.757Z,99762.41
2017-10-09T23:20:28.230Z,99754.86
2017-10-09T23:22:55.727Z,99752.80
2017-10-09T23:25:23.185Z,99753.28
2017-10-09T23:27:50.663Z,99757.17
2017-10-09T23:30:18.144Z,99749.95
2017-10-09T23:32:45.660Z,99748.08
2017-10-09T23:35:13.124Z,99753.89
2017-10-09T23:37:40.636Z,99753.89
2017-10-09T23:40:08.105Z,99750.86
2017-10-09T23:42:35.591Z,99756.94
2017-10-09T23:45:03.073Z,99758.02
2017-10-09T23:47:30.895Z,99755.94
2017-10-09T23:49:58.386Z,99751.28
2017-10-09T23:52:25.875Z,99754.95
2017-10-09T23:54:53.348Z,99756.64
2017-10-09T23:57:20.814Z,99755.81
2017-10-09T23:59:48.281Z,99761.27
